createdAt,value
2017-12-12T00:00:25.994Z,20.44
2017-12-12T00:00:57.636Z,20.44
2017-12-12T00:01:29.275Z,20.43
2017-12-12T00:02:00.920Z,20.42
2017-12-12T00:02:32.559Z,20.43
2017-12-12T00:03:04.204Z,20.47
2017-12-12T00:03:35.845Z,20.47
2017-12-12T00:04:07.484Z,20.47
2017-12-12T00:04:39.127Z,20.45
2017-12-12T00:05:10.770Z,20.44
2017-12-12T00:05:42.414Z,20.45
2017-12-12T00:06:14.052Z,20.45
2017-12-12T00:06:45.695Z,20.43
2017-12-12T00:07:17.335Z,20.44
2017-12-12T00:07:48.999Z,20.42
2017-12-12T00:08:20.687Z,20.42
2017-12-12T00:08:52.316Z,20.43
2017-12-12T00:09:23.941Z,20.43
2017-12-12T00:09:55.566Z,20.46
2017-12-12T00:10:27.198Z,20.48
2017-12-12T00:10:59.091Z,20.46
2017-12-12T00:11:30.782Z,20.51
2017-12-12T00:12:02.420Z,20.49
2017-12-12T00:12:34.062Z,20.53
2017-12-12T00:13:05.704Z,20.52
2017-12-12T00:13:37.380Z,20.50
2017-12-12T00:14:09.002Z,20.48
2017-12-12T00:14:40.833Z,20.49
2017-12-12T00:15:12.582Z,20.48
2017-12-12T00:15:44.223Z,20.48
2017-12-12T00:16:15.862Z,20.45
2017-12-12T00:16:47.505Z,20.46
2017-12-12T00:17:19.127Z,20.47
2017-12-12T00:17:50.792Z,20.50
2017-12-12T00:18:22.430Z,20.50
2017-12-12T00:18:54.098Z,20.53
2017-12-12T00:19:25.721Z,20.55
2017-12-12T00:19:57.359Z,20.55
2017-12-12T00:20:28.998Z,20.54
2017-12-12T00:21:00.642Z,20.55
2017-12-12T00:21:32.282Z,20.55
2017-12-12T00:22:03.924Z,20.55
2017-12-12T00:22:35.568Z,20.55
2017-12-12T00:23:07.208Z,20.56
2017-12-12T00:23:38.854Z,20.58
2017-12-12T00:24:10.542Z,20.59
2017-12-12T00:24:42.169Z,20.60
2017-12-12T00:25:13.790Z,20.58
2017-12-12T00:25:45.656Z,20.61
2017-12-12T00:26:17.283Z,20.63
2017-12-12T00:26:49.013Z,20.64
2017-12-12T00:27:20.653Z,20.65
2017-12-12T00:27:52.283Z,20.67
2017-12-12T00:28:23.937Z,20.64
2017-12-12T00:28:55.575Z,20.59
2017-12-12T00:29:27.238Z,20.58
2017-12-12T00:29:59.064Z,20.55
2017-12-12T00:30:30.812Z,20.62
2017-12-12T00:31:02.453Z,20.64
2017-12-12T00:31:34.092Z,20.64
2017-12-12T00:32:05.763Z,20.64
2017-12-12T00:32:37.390Z,20.64
2017-12-12T00:33:09.254Z,20.66
2017-12-12T00:33:40.878Z,20.67
2017-12-12T00:34:12.665Z,20.65
2017-12-12T00:34:44.271Z,20.72
2017-12-12T00:35:15.902Z,20.81
2017-12-12T00:35:47.536Z,20.83
2017-12-12T00:36:19.202Z,20.80
2017-12-12T00:36:51.092Z,20.78
2017-12-12T00:37:22.722Z,20.71
2017-12-12T00:37:54.352Z,20.70
2017-12-12T00:38:25.987Z,20.69
2017-12-12T00:38:57.606Z,20.70
2017-12-12T00:39:29.338Z,20.68
2017-12-12T00:40:00.970Z,20.68
2017-12-12T00:40:32.618Z,20.67
2017-12-12T00:41:04.261Z,20.66
2017-12-12T00:41:35.922Z,20.64
2017-12-12T00:42:07.856Z,20.62
2017-12-12T00:42:39.497Z,20.63
2017-12-12T00:43:11.141Z,20.63
2017-12-12T00:43:42.786Z,20.65
2017-12-12T00:44:14.422Z,20.61
2017-12-12T00:44:46.062Z,20.63
2017-12-12T00:45:17.703Z,20.62
2017-12-12T00:45:49.346Z,20.63
2017-12-12T00:46:21.023Z,20.61
2017-12-12T00:46:52.658Z,20.64
2017-12-12T00:47:24.286Z,20.61
2017-12-12T00:47:56.223Z,20.64
2017-12-12T00:48:27.864Z,20.63
2017-12-12T00:48:59.504Z,20.65
2017-12-12T00:49:31.148Z,20.65
2017-12-12T00:50:02.791Z,20.66
2017-12-12T00:50:34.430Z,20.63
2017-12-12T00:51:06.071Z,20.67
2017-12-12T00:51:38.254Z,20.68
2017-12-12T00:52:09.878Z,20.68
2017-12-12T00:52:41.615Z,20.67
2017-12-12T00:53:13.298Z,20.68
2017-12-12T00:53:44.918Z,20.68
2017-12-12T00:54:16.557Z,20.68
2017-12-12T00:54:48.414Z,20.65
2017-12-12T00:55:20.042Z,20.64
2017-12-12T00:55:51.774Z,20.62
2017-12-12T00:56:23.418Z,20.63
2017-12-12T00:56:55.365Z,20.62
2017-12-12T00:57:27.003Z,20.61
2017-12-12T00:57:58.648Z,20.62
2017-12-12T00:58:30.334Z,20.62
2017-12-12T00:59:02.203Z,20.61
2017-12-12T00:59:33.831Z,20.61
2017-12-12T01:00:05.462Z,20.59
2017-12-12T01:00:37.082Z,20.61
2017-12-12T01:01:08.711Z,20.61
2017-12-12T01:01:40.453Z,20.61
2017-12-12T01:02:12.075Z,20.61
2017-12-12T01:02:43.730Z,20.60
2017-12-12T01:03:15.681Z,20.58
2017-12-12T01:03:47.351Z,20.56
2017-12-12T01:04:19.239Z,20.58
2017-12-12T01:04:50.865Z,20.59
2017-12-12T01:05:22.494Z,20.56
2017-12-12T01:05:54.126Z,20.58
2017-12-12T01:06:25.746Z,20.60
2017-12-12T01:06:57.482Z,20.61
2017-12-12T01:07:29.120Z,20.57
2017-12-12T01:08:01.082Z,20.57
2017-12-12T01:08:32.730Z,20.55
2017-12-12T01:09:04.486Z,20.55
2017-12-12T01:09:36.118Z,20.56
2017-12-12T01:10:07.946Z,20.58
2017-12-12T01:10:39.586Z,20.58
2017-12-12T01:11:11.231Z,20.57
2017-12-12T01:11:42.872Z,20.58
2017-12-12T01:12:14.516Z,20.59
2017-12-12T01:12:46.154Z,20.59
2017-12-12T01:13:17.799Z,20.59
2017-12-12T01:13:49.441Z,20.56
2017-12-12T01:14:21.080Z,20.53
2017-12-12T01:14:52.754Z,20.52
2017-12-12T01:15:24.382Z,20.50
2017-12-12T01:15:56.026Z,20.54
2017-12-12T01:16:27.958Z,20.53
2017-12-12T01:16:59.597Z,20.54
2017-12-12T01:17:31.238Z,20.57
2017-12-12T01:18:02.884Z,20.54
2017-12-12T01:18:34.525Z,20.55
2017-12-12T01:19:06.483Z,20.55
2017-12-12T01:19:38.130Z,20.54
2017-12-12T01:20:09.803Z,20.54
2017-12-12T01:20:41.426Z,20.55
2017-12-12T01:21:13.054Z,20.53
2017-12-12T01:21:44.888Z,20.53
2017-12-12T01:22:16.633Z,20.53
2017-12-12T01:22:48.275Z,20.54
2017-12-12T01:23:19.943Z,20.55
2017-12-12T01:23:51.575Z,20.56
2017-12-12T01:24:23.508Z,20.56
2017-12-12T01:24:55.149Z,20.54
2017-12-12T01:25:26.788Z,20.56
2017-12-12T01:25:58.431Z,20.57
2017-12-12T01:26:30.075Z,20.55
2017-12-12T01:27:01.751Z,20.55
2017-12-12T01:27:33.379Z,20.54
2017-12-12T01:28:05.007Z,20.52
2017-12-12T01:28:36.642Z,20.49
2017-12-12T01:29:08.282Z,20.54
2017-12-12T01:29:39.927Z,20.52
2017-12-12T01:30:11.568Z,20.51
2017-12-12T01:30:43.210Z,20.50
2017-12-12T01:31:14.861Z,20.51
2017-12-12T01:31:46.732Z,20.50
2017-12-12T01:32:18.443Z,20.52
2017-12-12T01:32:50.388Z,20.53
2017-12-12T01:33:22.034Z,20.53
2017-12-12T01:33:53.901Z,20.53
2017-12-12T01:34:25.570Z,20.51
2017-12-12T01:34:57.195Z,20.51
2017-12-12T01:35:28.818Z,20.50
2017-12-12T01:36:00.552Z,20.50
2017-12-12T01:36:32.178Z,20.52
2017-12-12T01:37:03.834Z,20.53
2017-12-12T01:37:35.475Z,20.53
2017-12-12T01:38:07.146Z,20.51
2017-12-12T01:38:38.775Z,20.55
2017-12-12T01:39:10.710Z,20.54
2017-12-12T01:39:42.349Z,20.51
2017-12-12T01:40:13.994Z,20.50
2017-12-12T01:40:45.635Z,20.50
2017-12-12T01:41:17.280Z,20.52
2017-12-12T01:41:48.919Z,20.54
2017-12-12T01:42:20.561Z,20.53
2017-12-12T01:42:52.203Z,20.57
2017-12-12T01:43:23.859Z,20.57
2017-12-12T01:43:55.795Z,20.56
2017-12-12T01:44:27.743Z,20.59
2017-12-12T01:44:59.406Z,20.59
2017-12-12T01:45:31.039Z,20.59
2017-12-12T01:46:02.889Z,20.58
2017-12-12T01:46:34.929Z,20.60
2017-12-12T01:47:06.567Z,20.58
2017-12-12T01:47:38.206Z,20.59
2017-12-12T01:48:09.850Z,20.58
2017-12-12T01:48:41.490Z,20.60
2017-12-12T01:49:13.162Z,20.64
2017-12-12T01:49:44.786Z,20.65
2017-12-12T01:50:16.418Z,20.63
2017-12-12T01:50:48.060Z,20.62
2017-12-12T01:51:19.699Z,20.63
2017-12-12T01:51:51.344Z,20.62
2017-12-12T01:52:22.983Z,20.62
2017-12-12T01:52:54.627Z,20.65
2017-12-12T01:53:26.271Z,20.67
2017-12-12T01:53:57.911Z,20.70
2017-12-12T01:54:29.610Z,20.73
2017-12-12T01:55:01.504Z,20.71
2017-12-12T01:55:33.145Z,20.70
2017-12-12T01:56:04.785Z,20.68
2017-12-12T01:56:36.520Z,20.66
2017-12-12T01:57:08.378Z,20.66
2017-12-12T01:57:40.020Z,20.64
2017-12-12T01:58:11.661Z,20.67
2017-12-12T01:58:43.305Z,20.66
2017-12-12T01:59:14.944Z,20.68
2017-12-12T01:59:46.584Z,20.65
2017-12-12T02:00:18.267Z,20.65
2017-12-12T02:00:49.891Z,20.62
2017-12-12T02:01:21.523Z,20.60
2017-12-12T02:01:53.393Z,20.62
2017-12-12T02:02:25.023Z,20.59
2017-12-12T02:02:56.651Z,20.64
2017-12-12T02:03:28.388Z,20.63
2017-12-12T02:04:00.029Z,20.65
2017-12-12T02:04:31.668Z,20.63
2017-12-12T02:05:03.312Z,20.60
2017-12-12T02:05:34.984Z,20.61
2017-12-12T02:06:06.611Z,20.61
2017-12-12T02:06:38.546Z,20.60
2017-12-12T02:07:10.222Z,20.59
2017-12-12T02:07:41.846Z,20.60
2017-12-12T02:08:13.479Z,20.59
2017-12-12T02:08:45.114Z,20.62
2017-12-12T02:09:16.755Z,20.62
2017-12-12T02:09:48.394Z,20.62
2017-12-12T02:10:20.040Z,20.64
2017-12-12T02:10:51.670Z,20.66
2017-12-12T02:11:23.322Z,20.67
2017-12-12T02:11:54.965Z,20.66
2017-12-12T02:12:26.639Z,20.65
2017-12-12T02:12:58.262Z,20.65
2017-12-12T02:13:30.084Z,20.66
2017-12-12T02:14:01.840Z,20.68
2017-12-12T02:14:33.482Z,20.66
2017-12-12T02:15:05.123Z,20.69
2017-12-12T02:15:36.763Z,20.72
2017-12-12T02:16:08.407Z,20.73
2017-12-12T02:16:40.049Z,20.69
2017-12-12T02:17:11.690Z,20.69
2017-12-12T02:17:43.357Z,20.69
2017-12-12T02:18:14.986Z,20.68
2017-12-12T02:18:46.925Z,20.66
2017-12-12T02:19:18.566Z,20.66
2017-12-12T02:19:50.208Z,20.67
2017-12-12T02:20:21.879Z,20.68
2017-12-12T02:20:53.506Z,20.67
2017-12-12T02:21:25.143Z,20.68
2017-12-12T02:21:57.082Z,20.64
2017-12-12T02:22:28.722Z,20.60
2017-12-12T02:23:00.366Z,20.66
2017-12-12T02:23:32.005Z,20.63
2017-12-12T02:24:03.647Z,20.61
2017-12-12T02:24:35.298Z,20.62
2017-12-12T02:25:06.962Z,20.61
2017-12-12T02:25:38.590Z,20.63
2017-12-12T02:26:10.525Z,20.59
2017-12-12T02:26:42.166Z,20.60
2017-12-12T02:27:13.806Z,20.59
2017-12-12T02:27:45.451Z,20.57
2017-12-12T02:28:17.089Z,20.60
2017-12-12T02:28:48.734Z,20.60
2017-12-12T02:29:20.407Z,20.61
2017-12-12T02:29:52.038Z,20.63
2017-12-12T02:30:23.667Z,20.61
2017-12-12T02:30:55.302Z,20.63
2017-12-12T02:31:26.946Z,20.62
2017-12-12T02:31:58.586Z,20.60
2017-12-12T02:32:30.228Z,20.60
2017-12-12T02:33:01.870Z,20.60
2017-12-12T02:33:33.512Z,20.61
2017-12-12T02:34:05.398Z,20.61
2017-12-12T02:34:37.103Z,20.59
2017-12-12T02:35:08.745Z,20.58
2017-12-12T02:35:40.384Z,20.58
2017-12-12T02:36:12.028Z,20.56
2017-12-12T02:36:43.670Z,20.55
2017-12-12T02:37:15.313Z,20.54
2017-12-12T02:37:46.955Z,20.52
2017-12-12T02:38:18.596Z,20.55
2017-12-12T02:38:50.242Z,20.55
2017-12-12T02:39:21.884Z,20.57
2017-12-12T02:39:53.771Z,20.57
2017-12-12T02:40:25.398Z,20.55
2017-12-12T02:40:57.022Z,20.56
2017-12-12T02:41:28.644Z,20.54
2017-12-12T02:42:00.397Z,20.56
2017-12-12T02:42:32.039Z,20.55
2017-12-12T02:43:03.678Z,20.56
2017-12-12T02:43:35.322Z,20.54
2017-12-12T02:44:06.964Z,20.54
2017-12-12T02:44:38.605Z,20.52
2017-12-12T02:45:10.282Z,20.52
2017-12-12T02:45:41.902Z,20.51
2017-12-12T02:46:13.839Z,20.55
2017-12-12T02:46:45.480Z,20.55
2017-12-12T02:47:17.125Z,20.52
2017-12-12T02:47:48.765Z,20.54
2017-12-12T02:48:20.405Z,20.55
2017-12-12T02:48:52.046Z,20.54
2017-12-12T02:49:23.691Z,20.53
2017-12-12T02:49:55.329Z,20.50
2017-12-12T02:50:26.990Z,20.51
2017-12-12T02:50:58.924Z,20.51
2017-12-12T02:51:30.565Z,20.50
2017-12-12T02:52:02.209Z,20.54
2017-12-12T02:52:33.834Z,20.55
2017-12-12T02:53:06.717Z,20.58
2017-12-12T02:53:38.364Z,20.57
2017-12-12T02:54:10.005Z,20.57
2017-12-12T02:54:41.646Z,20.61
2017-12-12T02:55:13.288Z,20.61
2017-12-12T02:55:44.929Z,20.60
2017-12-12T02:56:16.571Z,20.61
2017-12-12T02:56:48.213Z,20.58
2017-12-12T02:57:21.084Z,20.59
2017-12-12T02:57:52.731Z,20.62
2017-12-12T02:58:24.675Z,20.61
2017-12-12T02:58:56.314Z,20.59
2017-12-12T02:59:27.958Z,20.62
2017-12-12T02:59:59.597Z,20.60
2017-12-12T03:00:31.242Z,20.63
2017-12-12T03:01:02.884Z,20.60
2017-12-12T03:01:34.523Z,20.61
2017-12-12T03:02:06.168Z,20.63
2017-12-12T03:02:37.810Z,20.63
2017-12-12T03:03:09.478Z,20.64
2017-12-12T03:03:41.106Z,20.65
2017-12-12T03:04:12.934Z,20.63
2017-12-12T03:04:44.685Z,20.61
2017-12-12T03:05:16.327Z,20.62
2017-12-12T03:05:47.968Z,20.61
2017-12-12T03:06:19.638Z,20.63
2017-12-12T03:06:51.262Z,20.61
2017-12-12T03:07:22.894Z,20.62
2017-12-12T03:07:54.536Z,20.60
2017-12-12T03:08:26.177Z,20.59
2017-12-12T03:08:57.819Z,20.60
2017-12-12T03:09:29.461Z,20.61
2017-12-12T03:10:01.104Z,20.62
2017-12-12T03:10:33.691Z,20.59
2017-12-12T03:11:05.314Z,20.59
2017-12-12T03:11:36.978Z,20.60
2017-12-12T03:12:08.599Z,20.61
2017-12-12T03:12:40.234Z,20.58
2017-12-12T03:13:11.875Z,20.57
2017-12-12T03:13:43.518Z,20.56
2017-12-12T03:14:15.160Z,20.54
2017-12-12T03:14:46.802Z,20.54
2017-12-12T03:15:18.463Z,20.52
2017-12-12T03:15:50.091Z,20.50
2017-12-12T03:16:21.727Z,20.49
2017-12-12T03:16:53.368Z,20.49
2017-12-12T03:17:25.012Z,20.50
2017-12-12T03:17:56.655Z,20.47
2017-12-12T03:18:28.295Z,20.47
2017-12-12T03:18:59.937Z,20.45
2017-12-12T03:19:31.563Z,20.45
2017-12-12T03:20:03.194Z,20.46
2017-12-12T03:20:36.162Z,20.45
2017-12-12T03:21:07.842Z,20.46
2017-12-12T03:21:39.658Z,20.46
2017-12-12T03:22:11.282Z,20.46
2017-12-12T03:22:42.910Z,20.47
2017-12-12T03:23:14.534Z,20.46
2017-12-12T03:23:46.166Z,20.45
2017-12-12T03:24:17.798Z,20.45
2017-12-12T03:24:49.535Z,20.43
2017-12-12T03:25:21.176Z,20.43
2017-12-12T03:25:52.819Z,20.43
2017-12-12T03:26:24.481Z,20.44
2017-12-12T03:26:56.342Z,20.41
2017-12-12T03:27:27.967Z,20.45
2017-12-12T03:27:59.642Z,20.45
2017-12-12T03:28:31.271Z,20.48
2017-12-12T03:29:02.899Z,20.50
2017-12-12T03:29:35.074Z,20.49
2017-12-12T03:30:06.703Z,20.49
2017-12-12T03:30:38.331Z,20.50
2017-12-12T03:31:09.960Z,20.50
2017-12-12T03:31:41.805Z,20.53
2017-12-12T03:32:13.442Z,20.54
2017-12-12T03:32:45.103Z,20.55
2017-12-12T03:33:16.925Z,20.53
2017-12-12T03:33:48.676Z,20.55
2017-12-12T03:34:20.317Z,20.56
2017-12-12T03:34:51.956Z,20.53
2017-12-12T03:35:23.604Z,20.56
2017-12-12T03:35:55.243Z,20.57
2017-12-12T03:36:26.884Z,20.59
2017-12-12T03:36:58.527Z,20.58
2017-12-12T03:37:30.169Z,20.61
2017-12-12T03:38:01.833Z,20.61
2017-12-12T03:38:33.502Z,20.61
2017-12-12T03:39:05.138Z,20.60
2017-12-12T03:39:36.762Z,20.56
2017-12-12T03:40:08.426Z,20.58
2017-12-12T03:40:40.051Z,20.61
2017-12-12T03:41:11.674Z,20.61
2017-12-12T03:41:43.549Z,20.60
2017-12-12T03:42:15.175Z,20.59
2017-12-12T03:42:46.798Z,20.58
2017-12-12T03:43:18.537Z,20.62
2017-12-12T03:43:50.194Z,20.64
2017-12-12T03:44:21.870Z,20.64
2017-12-12T03:44:53.494Z,20.64
2017-12-12T03:45:25.130Z,20.64
2017-12-12T03:45:56.763Z,20.63
2017-12-12T03:46:28.394Z,20.61
2017-12-12T03:47:00.338Z,20.61
2017-12-12T03:47:31.979Z,20.64
2017-12-12T03:48:03.621Z,20.62
2017-12-12T03:48:35.263Z,20.63
2017-12-12T03:49:06.905Z,20.62
2017-12-12T03:49:38.569Z,20.64
2017-12-12T03:50:10.199Z,20.67
2017-12-12T03:50:41.834Z,20.64
2017-12-12T03:51:13.482Z,20.62
2017-12-12T03:51:45.171Z,20.64
2017-12-12T03:52:16.794Z,20.65
2017-12-12T03:52:48.666Z,20.67
2017-12-12T03:53:20.586Z,20.67
2017-12-12T03:53:52.206Z,20.65
2017-12-12T03:54:23.939Z,20.68
2017-12-12T03:54:55.577Z,20.64
2017-12-12T03:55:27.221Z,20.63
2017-12-12T03:55:58.863Z,20.66
2017-12-12T03:56:30.505Z,20.68
2017-12-12T03:57:02.184Z,20.68
2017-12-12T03:57:33.806Z,20.68
2017-12-12T03:58:05.625Z,20.67
2017-12-12T03:58:37.381Z,20.66
2017-12-12T03:59:09.022Z,20.67
2017-12-12T03:59:40.664Z,20.67
2017-12-12T04:00:12.326Z,20.70
2017-12-12T04:00:44.558Z,20.70
2017-12-12T04:01:16.205Z,20.68
2017-12-12T04:01:47.846Z,20.71
2017-12-12T04:02:19.518Z,20.73
2017-12-12T04:02:51.150Z,20.74
2017-12-12T04:03:22.778Z,20.76
2017-12-12T04:03:54.414Z,20.75
2017-12-12T04:04:26.052Z,20.75
2017-12-12T04:04:57.699Z,20.76
2017-12-12T04:05:29.344Z,20.80
2017-12-12T04:06:01.179Z,20.81
2017-12-12T04:06:32.834Z,20.84
2017-12-12T04:07:04.501Z,20.81
2017-12-12T04:07:36.127Z,20.80
2017-12-12T04:08:07.859Z,20.82
2017-12-12T04:08:39.496Z,20.82
2017-12-12T04:09:11.140Z,20.82
2017-12-12T04:09:42.782Z,20.78
2017-12-12T04:10:14.403Z,20.78
2017-12-12T04:10:46.034Z,20.79
2017-12-12T04:11:17.662Z,20.76
2017-12-12T04:11:49.290Z,20.77
2017-12-12T04:12:21.259Z,20.77
2017-12-12T04:12:53.130Z,20.75
2017-12-12T04:13:24.890Z,20.74
2017-12-12T04:13:56.532Z,20.73
2017-12-12T04:14:28.174Z,20.73
2017-12-12T04:14:59.816Z,20.75
2017-12-12T04:15:31.456Z,20.73
2017-12-12T04:16:03.099Z,20.73
2017-12-12T04:16:34.743Z,20.73
2017-12-12T04:17:06.383Z,20.73
2017-12-12T04:17:38.051Z,20.71
2017-12-12T04:18:09.671Z,20.70
2017-12-12T04:18:41.308Z,20.70
2017-12-12T04:19:12.951Z,20.73
2017-12-12T04:19:44.592Z,20.73
2017-12-12T04:20:16.235Z,20.74
2017-12-12T04:20:47.877Z,20.72
2017-12-12T04:21:19.526Z,20.70
2017-12-12T04:21:51.160Z,20.67
2017-12-12T04:22:22.822Z,20.66
2017-12-12T04:22:54.451Z,20.70
2017-12-12T04:23:26.082Z,20.71
2017-12-12T04:23:57.728Z,20.68
2017-12-12T04:24:29.370Z,20.68
2017-12-12T04:25:01.011Z,20.70
2017-12-12T04:25:32.653Z,20.69
2017-12-12T04:26:04.295Z,20.66
2017-12-12T04:26:35.936Z,20.65
2017-12-12T04:27:07.602Z,20.64
2017-12-12T04:27:39.230Z,20.61
2017-12-12T04:28:11.087Z,20.61
2017-12-12T04:28:42.763Z,20.63
2017-12-12T04:29:14.390Z,20.65
2017-12-12T04:29:46.054Z,20.64
2017-12-12T04:30:17.678Z,20.67
2017-12-12T04:30:49.314Z,20.67
2017-12-12T04:31:20.951Z,20.68
2017-12-12T04:31:52.578Z,20.67
2017-12-12T04:32:24.306Z,20.64
2017-12-12T04:32:55.948Z,20.65
2017-12-12T04:33:27.589Z,20.63
2017-12-12T04:33:59.231Z,20.63
2017-12-12T04:34:30.901Z,20.63
2017-12-12T04:35:02.527Z,20.60
2017-12-12T04:35:34.390Z,20.59
2017-12-12T04:36:06.019Z,20.58
2017-12-12T04:36:37.655Z,20.58
2017-12-12T04:37:09.389Z,20.62
2017-12-12T04:37:41.031Z,20.61
2017-12-12T04:38:12.700Z,20.58
2017-12-12T04:38:44.326Z,20.59
2017-12-12T04:39:15.957Z,20.58
2017-12-12T04:39:47.598Z,20.58
2017-12-12T04:40:19.241Z,20.59
2017-12-12T04:40:50.881Z,20.61
2017-12-12T04:41:22.525Z,20.62
2017-12-12T04:41:54.167Z,20.61
2017-12-12T04:42:25.809Z,20.64
2017-12-12T04:42:57.450Z,20.61
2017-12-12T04:43:29.092Z,20.62
2017-12-12T04:44:00.735Z,20.64
2017-12-12T04:44:32.384Z,20.62
2017-12-12T04:45:04.018Z,20.62
2017-12-12T04:45:35.667Z,20.62
2017-12-12T04:46:07.307Z,20.62
2017-12-12T04:46:38.974Z,20.62
2017-12-12T04:47:10.601Z,20.62
2017-12-12T04:47:42.235Z,20.61
2017-12-12T04:48:14.177Z,20.61
2017-12-12T04:48:45.818Z,20.61
2017-12-12T04:49:17.460Z,20.61
2017-12-12T04:49:49.109Z,20.64
2017-12-12T04:50:20.758Z,20.65
2017-12-12T04:50:52.387Z,20.64
2017-12-12T04:51:24.027Z,20.65
2017-12-12T04:51:55.667Z,20.63
2017-12-12T04:52:27.301Z,20.65
2017-12-12T04:52:58.983Z,20.64
2017-12-12T04:53:30.605Z,20.62
2017-12-12T04:54:02.238Z,20.61
2017-12-12T04:54:33.879Z,20.64
2017-12-12T04:55:05.522Z,20.60
2017-12-12T04:55:37.164Z,20.60
2017-12-12T04:56:08.805Z,20.61
2017-12-12T04:56:40.448Z,20.61
2017-12-12T04:57:12.088Z,20.59
2017-12-12T04:57:44.651Z,20.61
2017-12-12T04:58:16.327Z,20.60
2017-12-12T04:58:47.950Z,20.62
2017-12-12T04:59:19.578Z,20.63
2017-12-12T04:59:51.220Z,20.65
2017-12-12T05:00:22.859Z,20.68
2017-12-12T05:00:54.504Z,20.67
2017-12-12T05:01:26.146Z,20.68
2017-12-12T05:01:57.788Z,20.65
2017-12-12T05:02:29.429Z,20.66
2017-12-12T05:03:01.075Z,20.65
2017-12-12T05:03:32.748Z,20.65
2017-12-12T05:04:04.368Z,20.65
2017-12-12T05:04:36.230Z,20.63
2017-12-12T05:05:07.886Z,20.63
2017-12-12T05:05:39.507Z,20.64
2017-12-12T05:06:11.140Z,20.67
2017-12-12T05:06:42.872Z,20.66
2017-12-12T05:07:14.513Z,20.68
2017-12-12T05:07:46.156Z,20.68
2017-12-12T05:08:17.798Z,20.69
2017-12-12T05:08:49.467Z,20.69
2017-12-12T05:09:21.097Z,20.68
2017-12-12T05:09:52.964Z,20.69
2017-12-12T05:10:24.594Z,20.68
2017-12-12T05:10:56.220Z,20.67
2017-12-12T05:11:27.956Z,20.70
2017-12-12T05:11:59.599Z,20.71
2017-12-12T05:12:31.432Z,20.70
2017-12-12T05:13:03.189Z,20.69
2017-12-12T05:13:34.858Z,20.70
2017-12-12T05:14:06.477Z,20.66
2017-12-12T05:14:38.117Z,20.66
2017-12-12T05:15:09.757Z,20.67
2017-12-12T05:15:41.398Z,20.69
2017-12-12T05:16:13.043Z,20.70
2017-12-12T05:16:44.679Z,20.69
2017-12-12T05:17:16.324Z,20.68
2017-12-12T05:17:48.007Z,20.68
2017-12-12T05:18:19.629Z,20.66
2017-12-12T05:18:51.299Z,20.69
2017-12-12T05:19:22.927Z,20.70
2017-12-12T05:19:54.551Z,20.68
2017-12-12T05:20:26.483Z,20.70
2017-12-12T05:20:58.110Z,20.72
2017-12-12T05:21:29.767Z,20.70
2017-12-12T05:22:01.716Z,20.69
2017-12-12T05:22:33.357Z,20.70
2017-12-12T05:23:05.001Z,20.70
2017-12-12T05:23:36.678Z,20.70
2017-12-12T05:24:08.302Z,20.70
2017-12-12T05:24:40.122Z,20.70
2017-12-12T05:25:11.786Z,20.69
2017-12-12T05:25:43.517Z,20.71
2017-12-12T05:26:15.158Z,20.70
2017-12-12T05:26:46.800Z,20.70
2017-12-12T05:27:18.446Z,20.69
2017-12-12T05:27:50.084Z,20.68
2017-12-12T05:28:21.728Z,20.70
2017-12-12T05:28:53.399Z,20.69
2017-12-12T05:29:25.027Z,20.72
2017-12-12T05:29:56.659Z,20.72
2017-12-12T05:30:28.288Z,20.72
2017-12-12T05:30:59.936Z,20.70
2017-12-12T05:31:31.578Z,20.69
2017-12-12T05:32:03.215Z,20.71
2017-12-12T05:32:34.882Z,20.68
2017-12-12T05:33:06.749Z,20.67
2017-12-12T05:33:38.387Z,20.68
2017-12-12T05:34:10.044Z,20.63
2017-12-12T05:34:41.737Z,20.66
2017-12-12T05:35:13.377Z,20.68
2017-12-12T05:35:45.020Z,20.67
2017-12-12T05:36:16.662Z,20.66
2017-12-12T05:36:48.303Z,20.66
2017-12-12T05:37:19.946Z,20.65
2017-12-12T05:37:51.588Z,20.65
2017-12-12T05:38:23.227Z,20.64
2017-12-12T05:38:54.871Z,20.62
2017-12-12T05:39:26.542Z,20.64
2017-12-12T05:39:58.172Z,20.64
2017-12-12T05:40:29.810Z,20.62
2017-12-12T05:41:01.440Z,20.63
2017-12-12T05:41:33.078Z,20.64
2017-12-12T05:42:04.914Z,20.64
2017-12-12T05:42:36.672Z,20.63
2017-12-12T05:43:08.313Z,20.64
2017-12-12T05:43:39.955Z,20.64
2017-12-12T05:44:11.598Z,20.68
2017-12-12T05:44:43.286Z,20.66
2017-12-12T05:45:14.910Z,20.64
2017-12-12T05:45:46.539Z,20.66
2017-12-12T05:46:18.167Z,20.64
2017-12-12T05:46:49.806Z,20.64
2017-12-12T05:47:21.453Z,20.65
2017-12-12T05:47:53.090Z,20.66
2017-12-12T05:48:24.710Z,20.67
2017-12-12T05:48:56.375Z,20.67
2017-12-12T05:49:28.017Z,20.65
2017-12-12T05:49:59.658Z,20.63
2017-12-12T05:50:31.299Z,20.62
2017-12-12T05:51:02.942Z,20.61
2017-12-12T05:51:34.581Z,20.64
2017-12-12T05:52:06.226Z,20.62
2017-12-12T05:52:37.858Z,20.61
2017-12-12T05:53:09.510Z,20.61
2017-12-12T05:53:41.152Z,20.62
2017-12-12T05:54:12.793Z,20.62
2017-12-12T05:54:44.436Z,20.61
2017-12-12T05:55:16.098Z,20.60
2017-12-12T05:55:47.771Z,20.60
2017-12-12T05:56:19.402Z,20.62
2017-12-12T05:56:51.022Z,20.63
2017-12-12T05:57:22.651Z,20.62
2017-12-12T05:57:54.274Z,20.60
2017-12-12T05:58:25.929Z,20.62
2017-12-12T05:58:57.570Z,20.63
2017-12-12T05:59:29.214Z,20.60
2017-12-12T06:00:00.857Z,20.59
2017-12-12T06:00:32.497Z,20.60
2017-12-12T06:01:04.166Z,20.58
2017-12-12T06:01:35.791Z,20.58
2017-12-12T06:02:07.425Z,20.60
2017-12-12T06:02:39.063Z,20.59
2017-12-12T06:03:10.706Z,20.60
2017-12-12T06:03:42.347Z,20.61
2017-12-12T06:04:13.990Z,20.62
2017-12-12T06:04:45.631Z,20.58
2017-12-12T06:05:17.274Z,20.59
2017-12-12T06:05:48.938Z,20.58
2017-12-12T06:06:20.562Z,20.58
2017-12-12T06:06:52.506Z,20.60
2017-12-12T06:07:24.135Z,20.60
2017-12-12T06:07:55.790Z,20.61
2017-12-12T06:08:27.432Z,20.61
2017-12-12T06:08:59.076Z,20.63
2017-12-12T06:09:30.715Z,20.62
2017-12-12T06:10:02.379Z,20.62
2017-12-12T06:10:34.038Z,20.60
2017-12-12T06:11:05.664Z,20.60
2017-12-12T06:11:37.285Z,20.61
2017-12-12T06:12:09.090Z,20.60
2017-12-12T06:12:40.719Z,20.62
2017-12-12T06:13:12.519Z,20.60
2017-12-12T06:13:44.158Z,20.63
2017-12-12T06:14:15.799Z,20.65
2017-12-12T06:14:47.441Z,20.66
2017-12-12T06:15:19.081Z,20.63
2017-12-12T06:15:50.710Z,20.62
2017-12-12T06:16:22.330Z,20.63
2017-12-12T06:16:53.958Z,20.65
2017-12-12T06:17:25.590Z,20.65
2017-12-12T06:17:57.218Z,20.67
2017-12-12T06:18:28.877Z,20.67
2017-12-12T06:19:00.502Z,20.68
2017-12-12T06:19:32.127Z,20.69
2017-12-12T06:20:03.861Z,20.69
2017-12-12T06:20:35.500Z,20.66
2017-12-12T06:21:07.184Z,20.67
2017-12-12T06:21:38.803Z,20.71
2017-12-12T06:22:10.702Z,20.66
2017-12-12T06:22:42.334Z,20.66
2017-12-12T06:23:14.019Z,20.66
2017-12-12T06:23:45.661Z,20.66
2017-12-12T06:24:17.286Z,20.67
2017-12-12T06:24:48.945Z,20.68
2017-12-12T06:25:20.587Z,20.66
2017-12-12T06:25:52.226Z,20.68
2017-12-12T06:26:23.871Z,20.70
2017-12-12T06:26:55.513Z,20.74
2017-12-12T06:27:27.154Z,20.75
2017-12-12T06:27:58.796Z,20.68
2017-12-12T06:28:30.469Z,20.74
2017-12-12T06:29:02.139Z,20.74
2017-12-12T06:29:33.981Z,20.76
2017-12-12T06:30:05.909Z,20.76
2017-12-12T06:30:37.534Z,20.76
2017-12-12T06:31:09.262Z,20.76
2017-12-12T06:31:40.904Z,20.76
2017-12-12T06:32:12.589Z,20.77
2017-12-12T06:32:44.205Z,20.76
2017-12-12T06:33:15.835Z,20.73
2017-12-12T06:33:47.503Z,20.73
2017-12-12T06:34:19.126Z,20.73
2017-12-12T06:34:51.064Z,20.75
2017-12-12T06:35:22.738Z,20.79
2017-12-12T06:35:54.363Z,20.81
2017-12-12T06:36:25.998Z,20.83
2017-12-12T06:36:57.909Z,20.87
2017-12-12T06:37:29.538Z,20.87
2017-12-12T06:38:01.171Z,20.88
2017-12-12T06:38:32.802Z,20.85
2017-12-12T06:39:04.506Z,20.88
2017-12-12T06:39:36.147Z,20.84
2017-12-12T06:40:07.789Z,20.83
2017-12-12T06:40:39.430Z,20.81
2017-12-12T06:41:11.296Z,20.80
2017-12-12T06:41:42.926Z,20.79
2017-12-12T06:42:14.664Z,20.77
2017-12-12T06:42:46.305Z,20.76
2017-12-12T06:43:17.950Z,20.77
2017-12-12T06:43:49.742Z,20.75
2017-12-12T06:44:21.373Z,20.76
2017-12-12T06:44:53.002Z,20.78
2017-12-12T06:45:24.622Z,20.77
2017-12-12T06:45:56.464Z,20.76
2017-12-12T06:46:28.106Z,20.78
2017-12-12T06:46:59.749Z,20.75
2017-12-12T06:47:31.390Z,20.74
2017-12-12T06:48:03.051Z,20.72